createdAt,value
2018-06-28T00:00:51.024Z,18.30
2018-06-28T00:03:21.314Z,18.20
2018-06-28T00:05:51.509Z,18.20
2018-06-28T00:08:21.864Z,18.10
2018-06-28T00:10:52.928Z,18.00
2018-06-28T00:13:24.117Z,18.00
2018-06-28T00:15:54.527Z,17.90
2018-06-28T00:18:24.779Z,17.90
2018-06-28T00:20:55.349Z,17.80
2018-06-28T00:23:25.604Z,17.70
2018-06-28T00:25:56.167Z,17.70
2018-06-28T00:28:26.364Z,17.70
2018-06-28T00:30:56.991Z,17.60
2018-06-28T00:33:27.772Z,17.50
2018-06-28T00:35:58.249Z,17.50
2018-06-28T00:38:28.232Z,17.50
2018-06-28T00:40:59.668Z,17.40
2018-06-28T00:43:29.684Z,17.40
2018-06-28T00:46:00.473Z,17.40
2018-06-28T00:48:30.488Z,17.40
2018-06-28T00:51:00.791Z,17.40
2018-06-28T00:53:30.918Z,17.50
2018-06-28T00:56:01.333Z,17.50
2018-06-28T00:58:31.629Z,17.50
2018-06-28T01:01:01.890Z,17.60
2018-06-28T01:03:32.337Z,17.60
2018-06-28T01:06:02.885Z,17.70
2018-06-28T01:08:33.311Z,17.70
2018-06-28T01:11:03.703Z,17.80
2018-06-28T01:13:34.020Z,17.80
2018-06-28T01:16:04.190Z,17.90
2018-06-28T01:18:34.562Z,17.90
2018-06-28T01:21:05.288Z,17.90
2018-06-28T01:23:35.431Z,18.00
2018-06-28T01:26:06.299Z,18.00
2018-06-28T01:28:36.825Z,18.00
2018-06-28T01:31:07.254Z,18.00
2018-06-28T01:33:37.727Z,18.00
2018-06-28T01:36:08.277Z,18.00
2018-06-28T01:38:38.623Z,18.00
2018-06-28T01:41:08.927Z,18.00
2018-06-28T01:43:46.137Z,18.00
2018-06-28T01:46:17.709Z,18.00
2018-06-28T01:48:47.856Z,18.00
2018-06-28T01:51:17.957Z,18.00
2018-06-28T01:53:48.191Z,18.00
2018-06-28T01:56:18.651Z,18.00
2018-06-28T01:58:49.001Z,18.00
2018-06-28T02:01:19.214Z,18.00
2018-06-28T02:03:49.605Z,18.00
2018-06-28T02:06:20.254Z,18.00
2018-06-28T02:08:51.129Z,18.00
2018-06-28T02:11:21.394Z,18.00
2018-06-28T02:13:51.846Z,18.10
2018-06-28T02:16:22.423Z,18.00
2018-06-28T02:18:52.649Z,18.00
2018-06-28T02:21:23.426Z,18.00
2018-06-28T02:23:54.017Z,18.10
2018-06-28T02:26:24.480Z,18.10
2018-06-28T02:28:54.732Z,18.10
2018-06-28T02:31:24.937Z,18.10
2018-06-28T02:33:55.253Z,18.10
2018-06-28T02:36:25.316Z,18.10
2018-06-28T02:38:55.614Z,18.10
2018-06-28T02:41:25.738Z,18.00
2018-06-28T02:43:56.326Z,18.00
2018-06-28T02:46:26.761Z,18.00
2018-06-28T02:48:57.061Z,18.00
2018-06-28T02:51:27.644Z,18.00
2018-06-28T02:53:57.795Z,18.00
2018-06-28T02:56:28.610Z,17.90
2018-06-28T02:58:58.818Z,17.90
2018-06-28T03:01:28.733Z,17.90
2018-06-28T03:03:59.191Z,17.90
2018-06-28T03:06:29.218Z,17.80
2018-06-28T03:09:00.210Z,17.80
2018-06-28T03:11:30.533Z,17.80
2018-06-28T03:14:00.940Z,17.80
2018-06-28T03:16:31.407Z,17.80
2018-06-28T03:19:01.895Z,17.70
2018-06-28T03:21:38.913Z,17.70
2018-06-28T03:24:09.601Z,17.80
2018-06-28T03:26:39.871Z,17.80
2018-06-28T03:29:10.197Z,17.80
2018-06-28T03:31:40.534Z,17.80
2018-06-28T03:34:11.317Z,17.80
2018-06-28T03:36:41.787Z,17.80
2018-06-28T03:39:14.158Z,17.80
2018-06-28T03:41:44.494Z,17.80
2018-06-28T03:44:14.900Z,17.80
2018-06-28T03:46:45.134Z,17.80
2018-06-28T03:49:15.310Z,17.80
2018-06-28T03:51:45.532Z,17.80
2018-06-28T03:54:15.861Z,17.80
2018-06-28T03:56:46.023Z,17.70
2018-06-28T03:59:16.551Z,17.70
2018-06-28T04:01:46.723Z,17.80
2018-06-28T04:04:17.171Z,17.80
2018-06-28T04:06:47.453Z,17.80
2018-06-28T04:09:18.019Z,17.70
2018-06-28T04:11:48.180Z,17.70
2018-06-28T04:14:18.464Z,17.70
2018-06-28T04:16:48.941Z,17.70
2018-06-28T04:19:18.902Z,17.70
2018-06-28T04:21:49.254Z,17.70
2018-06-28T04:24:19.408Z,17.70
2018-06-28T04:26:49.897Z,17.70
2018-06-28T04:29:20.180Z,17.60
2018-06-28T04:31:50.289Z,17.60
2018-06-28T04:34:20.549Z,17.60
2018-06-28T04:36:51.754Z,17.60
2018-06-28T04:39:22.159Z,17.60
2018-06-28T04:41:52.623Z,17.60
2018-06-28T04:44:22.985Z,17.60
2018-06-28T04:46:53.639Z,17.60
2018-06-28T04:49:23.861Z,17.60
2018-06-28T04:51:54.085Z,17.40
2018-06-28T04:54:24.556Z,17.40
2018-06-28T04:56:55.113Z,17.60
2018-06-28T04:59:25.423Z,17.50
2018-06-28T05:01:55.474Z,17.50
2018-06-28T05:04:25.856Z,17.50
2018-06-28T05:06:56.008Z,17.50
2018-06-28T05:09:26.346Z,17.50
2018-06-28T05:11:56.720Z,17.50
2018-06-28T05:14:26.843Z,17.50
2018-06-28T05:16:57.738Z,17.50
2018-06-28T05:19:27.888Z,17.60
2018-06-28T05:21:58.146Z,17.60
2018-06-28T05:24:29.005Z,17.60
2018-06-28T05:26:59.179Z,17.70
2018-06-28T05:29:29.651Z,17.70
2018-06-28T05:31:59.652Z,17.70
2018-06-28T05:34:29.846Z,17.80
2018-06-28T05:37:00.147Z,17.80
2018-06-28T05:39:30.870Z,17.90
2018-06-28T05:42:01.134Z,17.90
2018-06-28T05:44:31.485Z,18.00
2018-06-28T05:47:01.726Z,18.00
2018-06-28T05:49:31.892Z,18.00
2018-06-28T05:52:02.695Z,18.10
2018-06-28T05:54:33.012Z,18.10
2018-06-28T05:57:03.486Z,18.20
2018-06-28T05:59:33.755Z,18.20
2018-06-28T06:02:04.234Z,18.30
2018-06-28T06:04:34.646Z,18.50
2018-06-28T06:07:05.558Z,18.80
2018-06-28T06:09:35.759Z,19.10
2018-06-28T06:12:06.380Z,19.30
2018-06-28T06:14:36.581Z,19.50
2018-06-28T06:17:07.158Z,19.60
2018-06-28T06:19:37.604Z,19.60
2018-06-28T06:22:07.941Z,19.50
2018-06-28T06:24:38.253Z,19.50
2018-06-28T06:27:09.478Z,19.40
2018-06-28T06:29:40.092Z,19.30
2018-06-28T06:32:10.812Z,19.30
2018-06-28T06:34:41.724Z,19.30
2018-06-28T06:37:12.512Z,19.30
2018-06-28T06:39:43.193Z,19.40
2018-06-28T06:42:13.597Z,19.70
2018-06-28T06:44:44.755Z,19.90
2018-06-28T06:47:15.069Z,20.10
2018-06-28T06:49:45.432Z,20.20
2018-06-28T06:52:16.213Z,20.30
2018-06-28T06:54:47.649Z,20.50
2018-06-28T06:57:19.150Z,20.60
2018-06-28T06:59:49.621Z,20.70
2018-06-28T07:02:20.214Z,20.70
2018-06-28T07:04:50.809Z,20.70
2018-06-28T07:07:21.338Z,20.70
2018-06-28T07:09:52.733Z,20.70
2018-06-28T07:12:23.359Z,20.70
2018-06-28T07:14:54.344Z,20.70
2018-06-28T07:17:24.712Z,20.70
2018-06-28T07:19:55.605Z,20.70
2018-06-28T07:22:26.123Z,20.70
2018-06-28T07:24:57.299Z,20.60
2018-06-28T07:27:28.042Z,20.40
2018-06-28T07:30:00.505Z,20.30
2018-06-28T07:32:30.472Z,20.30
2018-06-28T07:35:02.170Z,20.30
2018-06-28T07:37:32.690Z,20.30
2018-06-28T07:40:03.867Z,20.30
2018-06-28T07:42:35.368Z,20.30
2018-06-28T07:45:06.102Z,20.50
2018-06-28T07:47:36.717Z,20.60
2018-06-28T07:50:07.835Z,20.80
2018-06-28T07:52:38.032Z,20.90
2018-06-28T07:55:08.196Z,20.90
2018-06-28T07:57:38.458Z,20.90
2018-06-28T08:00:09.229Z,20.90
2018-06-28T08:02:39.781Z,21.00
2018-06-28T08:05:10.003Z,21.20
2018-06-28T08:07:40.760Z,21.30
2018-06-28T08:10:11.502Z,21.50
2018-06-28T08:12:42.192Z,21.70
2018-06-28T08:15:12.438Z,21.80
2018-06-28T08:17:42.596Z,22.00
2018-06-28T08:20:12.854Z,22.10
2018-06-28T08:22:43.119Z,22.30
2018-06-28T08:25:13.388Z,22.40
2018-06-28T08:27:43.691Z,22.60
2018-06-28T08:30:13.997Z,22.80
2018-06-28T08:32:45.221Z,23.00
2018-06-28T08:35:15.771Z,23.10
2018-06-28T08:37:49.063Z,23.30
2018-06-28T08:40:19.425Z,23.40
2018-06-28T08:42:49.717Z,23.40
2018-06-28T08:45:20.299Z,23.40
2018-06-28T08:47:50.532Z,23.30
2018-06-28T08:50:20.862Z,23.20
2018-06-28T08:52:51.437Z,23.20
2018-06-28T08:55:21.522Z,23.20
2018-06-28T08:57:51.762Z,23.30
2018-06-28T09:00:21.881Z,23.30
2018-06-28T09:02:52.163Z,23.50
2018-06-28T09:05:22.616Z,23.60
2018-06-28T09:07:52.966Z,23.60
2018-06-28T09:10:23.159Z,23.70
2018-06-28T09:12:53.348Z,23.70
2018-06-28T09:15:23.751Z,23.70
2018-06-28T09:17:53.829Z,23.80
2018-06-28T09:20:24.013Z,23.90
2018-06-28T09:22:54.592Z,23.90
2018-06-28T09:25:24.805Z,23.90
2018-06-28T09:27:55.041Z,23.90
2018-06-28T09:30:25.270Z,24.00
2018-06-28T09:32:55.585Z,24.10
2018-06-28T09:35:25.689Z,24.10
2018-06-28T09:37:55.852Z,24.10
2018-06-28T09:40:26.157Z,24.20
2018-06-28T09:42:56.542Z,24.30
2018-06-28T09:45:26.989Z,24.30
2018-06-28T09:47:57.140Z,24.40
2018-06-28T09:50:28.336Z,24.40
2018-06-28T09:52:59.053Z,24.30
2018-06-28T09:55:29.665Z,24.40
2018-06-28T09:58:01.061Z,24.40
2018-06-28T10:00:36.709Z,24.50
2018-06-28T10:03:07.038Z,24.60
2018-06-28T10:05:37.881Z,24.70
2018-06-28T10:08:08.832Z,24.80
2018-06-28T10:10:39.633Z,24.90
2018-06-28T10:13:09.849Z,25.00
2018-06-28T10:15:40.615Z,25.00
2018-06-28T10:18:11.608Z,25.00
2018-06-28T10:20:42.510Z,25.10
2018-06-28T10:23:14.757Z,25.10
2018-06-28T10:25:45.933Z,25.20
2018-06-28T10:28:17.905Z,25.30
2018-06-28T10:30:48.754Z,25.50
2018-06-28T10:33:20.090Z,25.60
2018-06-28T10:35:50.553Z,25.70
2018-06-28T10:38:21.361Z,25.80
2018-06-28T10:40:52.169Z,25.90
2018-06-28T10:43:22.577Z,26.00
2018-06-28T10:45:52.783Z,26.00
2018-06-28T10:48:23.975Z,26.10
2018-06-28T10:50:54.292Z,26.10
2018-06-28T10:53:24.448Z,26.20
2018-06-28T10:55:54.998Z,26.30
2018-06-28T10:58:25.168Z,26.40
2018-06-28T11:00:55.268Z,26.50
2018-06-28T11:03:25.786Z,26.50
2018-06-28T11:05:56.303Z,26.60
2018-06-28T11:08:27.240Z,26.60
2018-06-28T11:10:57.968Z,26.70
2018-06-28T11:13:28.785Z,26.80
2018-06-28T11:16:00.895Z,26.80
2018-06-28T11:18:31.384Z,26.90
2018-06-28T11:21:02.739Z,27.00
2018-06-28T11:23:34.103Z,27.10
2018-06-28T11:26:04.710Z,27.20
2018-06-28T11:28:35.316Z,27.20
2018-06-28T11:31:05.617Z,27.30
2018-06-28T11:33:36.033Z,27.40
2018-06-28T11:36:06.624Z,27.40
2018-06-28T11:38:37.092Z,27.50
2018-06-28T11:41:08.028Z,27.60
2018-06-28T11:43:39.695Z,27.70
2018-06-28T11:46:10.022Z,27.80
2018-06-28T11:48:40.568Z,27.80
2018-06-28T11:51:11.020Z,27.80
2018-06-28T11:53:41.808Z,27.90
2018-06-28T11:56:12.205Z,28.00
2018-06-28T11:58:42.567Z,28.00
2018-06-28T12:01:12.747Z,28.10
2018-06-28T12:03:43.217Z,28.20
2018-06-28T12:06:13.833Z,28.30
2018-06-28T12:08:44.293Z,28.30
2018-06-28T12:11:14.551Z,28.30
2018-06-28T12:13:44.841Z,28.30
2018-06-28T12:16:14.937Z,28.30
2018-06-28T12:18:45.736Z,28.40
2018-06-28T12:21:16.779Z,28.50
2018-06-28T12:23:47.074Z,28.50
2018-06-28T12:26:17.840Z,28.50
2018-06-28T12:28:48.638Z,28.50
2018-06-28T12:31:19.375Z,28.50
2018-06-28T12:33:49.668Z,28.60
2018-06-28T12:36:20.012Z,28.70
2018-06-28T12:38:50.411Z,28.70
2018-06-28T12:41:21.593Z,28.80
2018-06-28T12:43:51.605Z,28.80
2018-06-28T12:46:32.410Z,28.90
2018-06-28T12:49:02.929Z,28.90
2018-06-28T12:51:49.946Z,28.90
2018-06-28T12:54:26.803Z,29.00
2018-06-28T12:56:57.228Z,29.00
2018-06-28T12:59:27.489Z,29.00
2018-06-28T13:01:57.673Z,29.10
2018-06-28T13:04:27.911Z,29.10
2018-06-28T13:06:59.193Z,29.10
2018-06-28T13:09:29.256Z,29.20
2018-06-28T13:12:00.333Z,29.30
2018-06-28T13:14:30.937Z,29.30
2018-06-28T13:17:02.207Z,29.40
2018-06-28T13:19:32.504Z,29.50
2018-06-28T13:22:04.140Z,29.50
2018-06-28T13:24:34.577Z,29.50
2018-06-28T13:27:05.238Z,29.60
2018-06-28T13:29:35.979Z,29.70
2018-06-28T13:32:06.278Z,29.80
2018-06-28T13:34:36.808Z,29.80
2018-06-28T13:37:07.516Z,29.90
2018-06-28T13:39:38.937Z,29.90
2018-06-28T13:42:10.025Z,30.00
2018-06-28T13:44:40.766Z,30.10
2018-06-28T13:47:11.763Z,30.20
2018-06-28T13:49:42.335Z,30.40
2018-06-28T13:52:12.607Z,30.70
2018-06-28T13:54:43.364Z,31.30
2018-06-28T13:57:14.519Z,32.60
2018-06-28T13:59:45.607Z,33.90
2018-06-28T14:02:16.142Z,35.20
2018-06-28T14:04:46.718Z,36.20
2018-06-28T14:07:16.935Z,37.10
2018-06-28T14:09:47.184Z,38.00
2018-06-28T14:12:18.186Z,39.00
2018-06-28T14:14:48.763Z,39.90
2018-06-28T14:17:20.501Z,40.70
2018-06-28T14:19:51.012Z,41.40
2018-06-28T14:22:21.844Z,42.10
2018-06-28T14:24:52.686Z,42.70
2018-06-28T14:27:23.584Z,43.30
2018-06-28T14:29:54.057Z,43.70
2018-06-28T14:32:24.520Z,44.30
2018-06-28T14:34:55.122Z,44.80
2018-06-28T14:37:26.314Z,45.30
2018-06-28T14:39:57.174Z,45.90
2018-06-28T14:42:28.005Z,46.40
2018-06-28T14:44:58.976Z,47.00
2018-06-28T14:47:29.388Z,47.50
2018-06-28T14:49:59.978Z,48.00
2018-06-28T14:52:30.979Z,48.20
2018-06-28T14:55:02.009Z,48.40
2018-06-28T14:57:32.596Z,48.60
2018-06-28T15:00:03.835Z,49.00
2018-06-28T15:02:34.372Z,49.40
2018-06-28T15:05:05.453Z,49.50
2018-06-28T15:07:36.277Z,49.50
2018-06-28T15:10:07.057Z,49.40
2018-06-28T15:12:37.022Z,49.40
2018-06-28T15:15:07.626Z,49.60
2018-06-28T15:17:38.416Z,49.80
2018-06-28T15:20:09.278Z,50.00
2018-06-28T15:22:41.297Z,49.80
2018-06-28T15:25:12.892Z,48.70
2018-06-28T15:27:43.769Z,48.50
2018-06-28T15:30:14.002Z,48.60
2018-06-28T15:32:44.538Z,48.70
2018-06-28T15:35:15.581Z,48.80
2018-06-28T15:37:46.418Z,48.90
2018-06-28T15:40:16.815Z,49.00
2018-06-28T15:42:47.046Z,49.00
2018-06-28T15:45:17.686Z,48.20
2018-06-28T15:47:48.712Z,48.20
2018-06-28T15:50:19.736Z,48.60
2018-06-28T15:52:49.957Z,48.90
2018-06-28T15:55:20.479Z,49.20
2018-06-28T15:57:50.638Z,49.50
2018-06-28T16:00:20.920Z,49.50
2018-06-28T16:02:51.458Z,49.60
2018-06-28T16:05:22.299Z,49.70
2018-06-28T16:07:52.633Z,49.60
2018-06-28T16:10:22.953Z,49.50
2018-06-28T16:12:54.164Z,49.40
2018-06-28T16:15:24.589Z,49.40
2018-06-28T16:17:55.226Z,49.50
2018-06-28T16:20:26.287Z,49.50
2018-06-28T16:22:57.301Z,49.40
2018-06-28T16:25:27.489Z,49.40
2018-06-28T16:27:57.745Z,49.30
2018-06-28T16:30:28.227Z,49.30
2018-06-28T16:32:58.596Z,49.20
2018-06-28T16:35:29.472Z,49.10
2018-06-28T16:37:59.901Z,49.00
2018-06-28T16:40:31.141Z,48.90
2018-06-28T16:43:01.684Z,48.70
2018-06-28T16:45:32.730Z,48.50
2018-06-28T16:48:03.775Z,48.20
2018-06-28T16:50:34.868Z,48.00
2018-06-28T16:53:06.009Z,47.80
2018-06-28T16:55:36.346Z,47.70
2018-06-28T16:58:07.521Z,47.70
2018-06-28T17:00:39.411Z,47.60
2018-06-28T17:03:14.072Z,47.50
2018-06-28T17:05:44.859Z,47.40
2018-06-28T17:08:14.974Z,47.00
2018-06-28T17:10:45.411Z,46.90
2018-06-28T17:13:15.774Z,46.90
2018-06-28T17:15:46.562Z,46.90
2018-06-28T17:18:17.277Z,46.80
2018-06-28T17:20:47.850Z,46.70
2018-06-28T17:23:18.690Z,46.50
2018-06-28T17:25:49.736Z,46.40
2018-06-28T17:28:20.357Z,46.30
2018-06-28T17:30:51.317Z,46.20
2018-06-28T17:33:21.655Z,46.10
2018-06-28T17:35:52.289Z,46.00
2018-06-28T17:38:29.719Z,46.00
2018-06-28T17:41:00.003Z,46.00
2018-06-28T17:43:30.321Z,45.80
2018-06-28T17:46:00.650Z,45.60
2018-06-28T17:48:31.133Z,45.30
2018-06-28T17:51:01.742Z,45.10
2018-06-28T17:53:32.900Z,44.80
2018-06-28T17:56:03.034Z,44.60
2018-06-28T17:58:34.335Z,44.60
2018-06-28T18:01:06.947Z,44.40
2018-06-28T18:03:39.189Z,44.30
2018-06-28T18:06:11.058Z,44.20
2018-06-28T18:08:44.432Z,44.00
2018-06-28T18:11:16.954Z,43.80
2018-06-28T18:13:47.604Z,43.60
2018-06-28T18:16:18.050Z,43.50
2018-06-28T18:18:48.476Z,43.30
2018-06-28T18:21:19.164Z,43.10
2018-06-28T18:23:50.326Z,42.90
2018-06-28T18:26:20.536Z,42.70
2018-06-28T18:28:50.702Z,42.50
2018-06-28T18:31:21.168Z,42.30
2018-06-28T18:33:51.799Z,42.10
2018-06-28T18:36:22.041Z,42.00
2018-06-28T18:38:52.727Z,41.90
2018-06-28T18:41:23.332Z,41.70
2018-06-28T18:43:54.453Z,41.40
2018-06-28T18:46:24.856Z,41.20
2018-06-28T18:48:55.233Z,41.10
2018-06-28T18:51:26.393Z,40.80
2018-06-28T18:53:56.973Z,40.60
2018-06-28T18:56:28.158Z,40.40
2018-06-28T18:58:58.773Z,40.10
2018-06-28T19:01:28.929Z,39.80
2018-06-28T19:03:59.275Z,39.60
2018-06-28T19:06:31.216Z,39.30
2018-06-28T19:09:01.328Z,38.80
2018-06-28T19:11:31.487Z,38.20
2018-06-28T19:14:06.994Z,37.60
2018-06-28T19:16:42.677Z,37.00
2018-06-28T19:19:13.250Z,36.60
2018-06-28T19:21:48.668Z,36.40
2018-06-28T19:24:18.879Z,36.10
2018-06-28T19:26:49.499Z,35.70
2018-06-28T19:29:24.847Z,35.20
2018-06-28T19:32:00.235Z,34.70
2018-06-28T19:34:31.852Z,34.30
2018-06-28T19:37:02.328Z,33.80
2018-06-28T19:39:37.768Z,33.40
2018-06-28T19:42:13.414Z,33.00
2018-06-28T19:44:43.629Z,32.60
2018-06-28T19:47:14.118Z,32.30
2018-06-28T19:49:49.435Z,32.00
2018-06-28T19:52:24.981Z,31.60
2018-06-28T19:54:55.405Z,31.30
2018-06-28T19:57:25.883Z,31.00
2018-06-28T19:59:56.498Z,30.70
2018-06-28T20:02:32.033Z,30.50
2018-06-28T20:05:02.121Z,30.20
2018-06-28T20:07:32.920Z,29.90
2018-06-28T20:10:03.482Z,29.70
2018-06-28T20:12:38.881Z,29.50
2018-06-28T20:15:14.306Z,29.20
2018-06-28T20:18:01.096Z,29.00
2018-06-28T20:20:34.526Z,28.70
2018-06-28T20:23:05.454Z,28.50
2018-06-28T20:25:35.853Z,28.30
2018-06-28T20:28:11.541Z,28.20
2018-06-28T20:30:46.934Z,28.00
2018-06-28T20:33:23.135Z,27.90
2018-06-28T20:35:53.387Z,27.80
2018-06-28T20:38:23.655Z,27.50
2018-06-28T20:40:54.930Z,27.50
2018-06-28T20:43:26.218Z,27.30
2018-06-28T20:45:56.927Z,27.20
2018-06-28T20:48:28.490Z,27.00
2018-06-28T20:50:59.204Z,26.80
2018-06-28T20:53:34.208Z,26.70
2018-06-28T20:56:05.059Z,26.60
2018-06-28T20:58:37.449Z,26.40
2018-06-28T21:01:12.809Z,26.30
2018-06-28T21:03:43.036Z,26.20
2018-06-28T21:06:13.407Z,26.10
2018-06-28T21:08:44.239Z,25.90
2018-06-28T21:11:14.840Z,25.80
2018-06-28T21:13:45.451Z,25.60
2018-06-28T21:16:16.862Z,25.50
2018-06-28T21:18:47.965Z,25.40
2018-06-28T21:21:19.154Z,25.30
2018-06-28T21:23:50.181Z,25.10
2018-06-28T21:26:20.568Z,25.00
2018-06-28T21:28:52.064Z,24.90
2018-06-28T21:31:22.129Z,24.80
2018-06-28T21:33:52.762Z,24.70
2018-06-28T21:36:22.970Z,24.60
2018-06-28T21:38:53.317Z,24.50
2018-06-28T21:41:24.141Z,24.50
2018-06-28T21:43:54.286Z,24.40
2018-06-28T21:46:24.445Z,24.30
2018-06-28T21:48:56.239Z,24.20
2018-06-28T21:51:26.616Z,24.10
2018-06-28T21:53:57.382Z,24.00
2018-06-28T21:56:27.615Z,23.90
2018-06-28T21:58:58.309Z,23.80
2018-06-28T22:01:29.198Z,23.70
2018-06-28T22:03:59.578Z,23.60
2018-06-28T22:06:29.789Z,23.50
2018-06-28T22:09:00.077Z,23.40
2018-06-28T22:11:30.602Z,23.30
2018-06-28T22:14:00.930Z,23.20
2018-06-28T22:16:31.021Z,23.10
2018-06-28T22:19:01.217Z,23.00
2018-06-28T22:21:31.450Z,22.90
2018-06-28T22:24:02.363Z,22.90
2018-06-28T22:26:32.801Z,22.80
2018-06-28T22:29:05.282Z,22.70
2018-06-28T22:31:37.654Z,22.70
2018-06-28T22:34:08.500Z,22.60
2018-06-28T22:36:38.873Z,22.60
2018-06-28T22:39:12.033Z,22.50
2018-06-28T22:41:43.126Z,22.40
2018-06-28T22:44:13.943Z,22.40
2018-06-28T22:46:44.343Z,22.30
2018-06-28T22:49:14.366Z,22.30
2018-06-28T22:51:44.560Z,22.20
2018-06-28T22:54:14.978Z,22.20
2018-06-28T22:56:45.112Z,22.10
2018-06-28T22:59:15.341Z,22.10
2018-06-28T23:01:45.524Z,22.00
2018-06-28T23:04:15.641Z,22.00
2018-06-28T23:06:45.792Z,22.00
2018-06-28T23:09:15.977Z,22.00
2018-06-28T23:11:46.341Z,21.90
2018-06-28T23:14:16.757Z,21.90
2018-06-28T23:16:46.945Z,21.80
2018-06-28T23:19:17.080Z,21.80
2018-06-28T23:21:47.279Z,21.70
2018-06-28T23:24:17.331Z,21.70
2018-06-28T23:26:47.901Z,21.60
2018-06-28T23:29:17.863Z,21.60
2018-06-28T23:31:48.443Z,21.50
2018-06-28T23:34:19.021Z,21.50
2018-06-28T23:36:49.634Z,21.40
2018-06-28T23:39:19.773Z,21.30
2018-06-28T23:41:50.471Z,21.30
2018-06-28T23:44:27.584Z,21.20
2018-06-28T23:46:57.763Z,21.10
2018-06-28T23:49:28.112Z,21.00
2018-06-28T23:51:58.290Z,20.90
2018-06-28T23:54:28.874Z,20.80
2018-06-28T23:56:59.068Z,20.70
2018-06-28T23:59:29.333Z,20.60
